Capt. Harry — WDC3690 — position and weather

sailwx.info

Track history (hours):
 
Tides and Currents Weather Stations Pressure Air Temp Water Temp Dewpoint Dewpoint Depression Visibility Wind Speed Wind Dir Waves Ship Positions

Capt. Harry

Owner: Wilmington Tug, Inc., New Castle, DE. More information available from US FCC via Universal Licensing System and Coast Guard Vessel Documentation Center.

Last reported at 2017-Mar-30 01:32 UTC. Time now 2017-Mar-30 05:00 UTC.
Position N 39°14' W 075°19'.

Type: Tug. MMSI: 367012530.

Date/timePositionNaut miles runAvg speedWind from/ knotsBaromVisibWave heightAir tempDewpointWater temp
2017-Mar-30 01:32N 39°14' W 075°19'1212.2
2017-Mar-30 00:33N 39°23' W 075°29'1212.5
2017-Mar-29 23:33N 39°35' W 075°34'1413.6
2017-Mar-29 22:33N 39°48' W 075°26'1212.1
2017-Mar-29 21:33N 39°53' W 075°12'1 0.7
2017-Mar-29 20:34N 39°53' W 075°11'0 0.0
2017-Mar-29 19:33N 39°53' W 075°11'0 0.0
2017-Mar-29 18:33N 39°53' W 075°11'0 0.0
2017-Mar-29 17:34N 39°53' W 075°11'0 0.0
2017-Mar-29 16:33N 39°53' W 075°11'0 0.0
2017-Mar-29 15:34N 39°53' W 075°11'0 0.0
2017-Mar-29 14:34N 39°53' W 075°11'0 0.0
2017-Mar-29 13:33N 39°53' W 075°11'0 0.0
2017-Mar-29 12:34N 39°53' W 075°11'0 0.0
2017-Mar-29 11:33N 39°53' W 075°11'0 0.0
2017-Mar-29 10:34N 39°53' W 075°11'0 0.0
2017-Mar-29 09:33N 39°53' W 075°11'0 0.0
2017-Mar-29 08:33N 39°53' W 075°11'0 0.0
2017-Mar-29 07:34N 39°53' W 075°11'2 2.3
2017-Mar-29 06:34N 39°52' W 075°14'9 8.9
2017-Mar-29 05:33N 39°49' W 075°24'0 0.0
2017-Mar-29 04:33N 39°49' W 075°24'1 1.2
2017-Mar-29 03:33N 39°48' W 075°26'0 0.0
2017-Mar-29 02:33N 39°48' W 075°26'1 1.3
2017-Mar-29 01:33N 39°49' W 075°24'1 1.3
2017-Mar-29 00:33N 39°48' W 075°26'0 0.0
2017-Mar-28 23:33N 39°48' W 075°26'0 0.0
2017-Mar-28 22:33N 39°48' W 075°26'0 0.0
2017-Mar-28 21:33N 39°48' W 075°26'0 0.0
2017-Mar-28 20:33N 39°48' W 075°26'0 0.0
2017-Mar-28 19:33N 39°48' W 075°26'0 0.0
2017-Mar-28 18:33N 39°48' W 075°26'0 0.0
2017-Mar-28 17:33N 39°48' W 075°26'0 0.0
2017-Mar-28 16:33N 39°48' W 075°26'0 0.1
2017-Mar-28 15:33N 39°48' W 075°26'1 1.4
2017-Mar-28 14:33N 39°49' W 075°24'0 0.0
2017-Mar-28 13:33N 39°49' W 075°24'1 1.2
2017-Mar-28 12:33N 39°48' W 075°26'0 0.2
2017-Mar-28 11:22N 39°48' W 075°26'0 0.0
2017-Mar-28 10:33N 39°48' W 075°26'7 6.9
2017-Mar-28 09:33N 39°51' W 075°18'1 1.2
2017-Mar-28 08:33N 39°51' W 075°16'2 1.8
2017-Mar-28 07:33N 39°51' W 075°19'2 2.1
2017-Mar-28 06:33N 39°51' W 075°16'0 0.0
2017-Mar-28 05:33N 39°51' W 075°16'0 0.0
2017-Mar-28 04:33N 39°51' W 075°16'0 0.0
2017-Mar-28 03:33N 39°51' W 075°16'0 0.0
2017-Mar-28 02:33N 39°51' W 075°16'0 0.3
2017-Mar-28 01:33N 39°51' W 075°16'1010.2
2017-Mar-28 00:33N 39°46' W 075°28'4 4.0
2017-Mar-27 23:33N 39°43' W 075°31'0 0.1
2017-Mar-27 22:33N 39°43' W 075°31'0 0.0
2017-Mar-27 21:33N 39°43' W 075°31'0 0.0
2017-Mar-27 20:33N 39°43' W 075°31'0 0.0
2017-Mar-27 19:33N 39°43' W 075°31'0 0.0
2017-Mar-27 18:33N 39°43' W 075°31'0 0.0
2017-Mar-27 17:33N 39°43' W 075°31'0 0.0
2017-Mar-27 16:33N 39°43' W 075°31'0 0.5
2017-Mar-27 15:33N 39°43' W 075°31'0 0.1
2017-Mar-27 14:34N 39°43' W 075°31'0 0.3
2017-Mar-27 13:34N 39°43' W 075°31'0 0.3
2017-Mar-27 12:33N 39°43' W 075°31'0 0.0
2017-Mar-27 11:34N 39°43' W 075°31'3 3.0
2017-Mar-27 10:34N 39°46' W 075°29'4 3.5
2017-Mar-27 09:34N 39°48' W 075°26'0 0.0
2017-Mar-27 08:33N 39°48' W 075°26'0 0.0
2017-Mar-27 07:34N 39°48' W 075°26'0 0.0
2017-Mar-27 06:33N 39°48' W 075°26'1 1.4
2017-Mar-27 05:33N 39°49' W 075°24'1 1.4
2017-Mar-27 04:33N 39°48' W 075°26'0 0.0
2017-Mar-27 03:33N 39°48' W 075°26'0 0.0
2017-Mar-27 02:33N 39°48' W 075°26'0 0.0
2017-Mar-27 01:34N 39°48' W 075°26'5 5.4
2017-Mar-27 00:33N 39°51' W 075°20'7 7.1
2017-Mar-26 23:34N 39°53' W 075°11'0 0.0
2017-Mar-26 22:34N 39°53' W 075°11'0 0.0
2017-Mar-26 21:34N 39°53' W 075°11'0 0.0
2017-Mar-26 20:33N 39°53' W 075°11'0 0.0
2017-Mar-26 19:34N 39°53' W 075°11'0 0.0
2017-Mar-26 18:34N 39°53' W 075°11'0 0.0
2017-Mar-26 17:33N 39°53' W 075°11'0 0.0
2017-Mar-26 16:34N 39°53' W 075°11'2 1.8
2017-Mar-26 15:34N 39°52' W 075°13'0 0.2
2017-Mar-26 14:34N 39°52' W 075°13'2 1.8
2017-Mar-26 13:34N 39°53' W 075°11'0 0.0
2017-Mar-26 12:34N 39°53' W 075°11'3 3.0
2017-Mar-26 11:33N 39°54' W 075°08'0 0.3
2017-Mar-26 10:33N 39°54' W 075°08'2 2.4
2017-Mar-26 09:33N 39°53' W 075°10'1 0.5
2017-Mar-26 08:33N 39°53' W 075°11'0 0.0
2017-Mar-26 07:33N 39°53' W 075°11'0 0.0
2017-Mar-26 06:33N 39°53' W 075°11'0 0.0
2017-Mar-26 05:33N 39°53' W 075°11'0 0.0
2017-Mar-26 04:33N 39°53' W 075°11'0 0.0
2017-Mar-26 03:33N 39°53' W 075°11'0 0.0
2017-Mar-26 02:33N 39°53' W 075°11'0 0.0
2017-Mar-26 01:33N 39°53' W 075°11'0 0.0
2017-Mar-26 00:33N 39°53' W 075°11'0 0.0
2017-Mar-25 23:33N 39°53' W 075°11'0 0.0
2017-Mar-25 22:33N 39°53' W 075°11'0 0.0
2017-Mar-25 21:33N 39°53' W 075°11'0 0.0
2017-Mar-25 20:33N 39°53' W 075°11'0 0.0
2017-Mar-25 19:33N 39°53' W 075°11'0 0.0
2017-Mar-25 18:33N 39°53' W 075°11'0 0.0
2017-Mar-25 17:33N 39°53' W 075°11'0 0.0
2017-Mar-25 16:33N 39°53' W 075°11'0 0.0
2017-Mar-25 15:33N 39°53' W 075°11'0 0.0
2017-Mar-25 14:33N 39°53' W 075°11'0 0.0
2017-Mar-25 13:33N 39°53' W 075°11'0 0.0
2017-Mar-25 12:33N 39°53' W 075°11'0 0.0
2017-Mar-25 11:33N 39°53' W 075°11'0 0.0
2017-Mar-25 10:33N 39°53' W 075°11'0 0.0
2017-Mar-25 09:33N 39°53' W 075°11'0 0.0
2017-Mar-25 08:33N 39°53' W 075°11'0 0.0
2017-Mar-25 07:33N 39°53' W 075°11'0 0.0
2017-Mar-25 06:33N 39°53' W 075°11'0 0.0
2017-Mar-25 05:33N 39°53' W 075°11'0 0.0
2017-Mar-25 04:33N 39°53' W 075°11'0 0.0
2017-Mar-25 03:33N 39°53' W 075°11'0 0.0
2017-Mar-25 02:33N 39°53' W 075°11'0 0.0
2017-Mar-25 01:33N 39°53' W 075°11'4 4.1
2017-Mar-25 00:33N 39°57' W 075°08'3 2.9
2017-Mar-24 23:33N 39°59' W 075°05'0 0.0
2017-Mar-24 22:33N 39°59' W 075°05'0 0.0
2017-Mar-24 21:33N 39°59' W 075°05'0 0.0
2017-Mar-24 20:27N 39°59' W 075°05'4 4.4
2017-Mar-24 19:34N 39°55' W 075°08'6 5.9
2017-Mar-24 18:33N 39°51' W 075°14'0 0.3
2017-Mar-24 17:34N 39°51' W 075°14'3 3.0
2017-Mar-24 16:33N 39°53' W 075°11'0 0.0
2017-Mar-24 15:34N 39°53' W 075°11'0 0.0
2017-Mar-24 14:34N 39°53' W 075°11'0 0.0
2017-Mar-24 13:34N 39°53' W 075°11'0 0.0
2017-Mar-24 12:33N 39°53' W 075°11'0 0.0
2017-Mar-24 11:33N 39°53' W 075°11'0 0.0
2017-Mar-24 10:33N 39°53' W 075°11'0 0.0
2017-Mar-24 09:34N 39°53' W 075°11'0 0.0
2017-Mar-24 08:33N 39°53' W 075°11'0 0.0
2017-Mar-24 07:34N 39°53' W 075°11'4 3.5
2017-Mar-24 06:33N 39°51' W 075°15'1 1.1
2017-Mar-24 05:33N 39°51' W 075°16'1 1.5
2017-Mar-24 04:33N 39°51' W 075°18'4 4.4
2017-Mar-24 03:34N 39°52' W 075°13'2 1.5
2017-Mar-24 02:33N 39°53' W 075°11'0 0.0
2017-Mar-24 01:33N 39°53' W 075°11'0 0.0
2017-Mar-24 00:33N 39°53' W 075°11'0 0.0
2017-Mar-23 23:34N 39°53' W 075°11'0 0.0
2017-Mar-23 22:34N 39°53' W 075°11'0 0.0
2017-Mar-23 21:33N 39°53' W 075°11'0 0.0
2017-Mar-23 20:34N 39°53' W 075°11'0 0.0
2017-Mar-23 19:34N 39°53' W 075°11'0 0.0
2017-Mar-23 18:34N 39°53' W 075°11'0 0.0
2017-Mar-23 17:33N 39°53' W 075°11'0 0.0
2017-Mar-23 16:33N 39°53' W 075°11'0 0.0
2017-Mar-23 15:33N 39°53' W 075°11'0 0.0
2017-Mar-23 14:33N 39°53' W 075°11'0 0.0
2017-Mar-23 13:33N 39°53' W 075°11'0 0.0
2017-Mar-23 12:34N 39°53' W 075°11'0 0.0
2017-Mar-23 11:33N 39°53' W 075°11'0 0.0
2017-Mar-23 10:34N 39°53' W 075°11'0 0.0
2017-Mar-23 09:34N 39°53' W 075°11'0 0.0
2017-Mar-23 08:34N 39°53' W 075°11'2 2.5
2017-Mar-23 07:33N 39°54' W 075°08'0 0.2
2017-Mar-23 06:34N 39°54' W 075°08'0 0.0
2017-Mar-23 05:33N 39°54' W 075°08'0 0.0
2017-Mar-23 04:33N 39°54' W 075°08'5 4.9
2017-Mar-23 03:33N 39°58' W 075°06'0 0.2
2017-Mar-23 02:33N 39°58' W 075°06'5 5.3
2017-Mar-23 01:33N 39°53' W 075°08'2 2.1
2017-Mar-23 00:34N 39°53' W 075°11'0 0.0
2017-Mar-22 23:34N 39°53' W 075°11'0 0.0
2017-Mar-22 22:33N 39°53' W 075°11'0 0.0
2017-Mar-22 21:33N 39°53' W 075°11'0 0.0
2017-Mar-22 20:34N 39°53' W 075°11'0 0.0
2017-Mar-22 19:33N 39°53' W 075°11'0 0.0
2017-Mar-22 18:34N 39°53' W 075°11'3 2.5
2017-Mar-22 17:33N 39°54' W 075°08'2 2.4
2017-Mar-22 16:33N 39°53' W 075°11'0 0.4
2017-Mar-22 15:33N 39°53' W 075°11'0 0.0
2017-Mar-22 14:34N 39°53' W 075°11'5 4.5
2017-Mar-22 13:33N 39°51' W 075°16'0 0.1
2017-Mar-22 12:33N 39°51' W 075°16'0 0.3
2017-Mar-22 11:33N 39°51' W 075°16'6 6.1
2017-Mar-22 10:33N 39°53' W 075°08'1 0.9
2017-Mar-22 09:33N 39°53' W 075°09'1 1.4
2017-Mar-22 08:33N 39°54' W 075°08'2 2.3
2017-Mar-22 07:33N 39°53' W 075°11'0 0.0
2017-Mar-22 06:33N 39°53' W 075°11'0 0.0
2017-Mar-22 05:33N 39°53' W 075°11'0 0.0
2017-Mar-22 04:33N 39°53' W 075°11'0 0.0
2017-Mar-22 03:33N 39°53' W 075°11'0 0.0
2017-Mar-22 02:33N 39°53' W 075°11'0 0.0
2017-Mar-22 01:33N 39°53' W 075°11'0 0.0
2017-Mar-22 00:33N 39°53' W 075°11'0 0.0
2017-Mar-21 23:33N 39°53' W 075°11'0 0.0
2017-Mar-21 22:33N 39°53' W 075°11'0 0.0
2017-Mar-21 21:33N 39°53' W 075°11'0 0.0
2017-Mar-21 20:33N 39°53' W 075°11'0 0.0
2017-Mar-21 19:33N 39°53' W 075°11'11 0.5
2017-Mar-20 23:13N 39°49' W 075°24'0 0.0
2017-Mar-20 22:33N 39°49' W 075°24'7 3.1
2017-Mar-20 20:09N 39°43' W 075°31'0 0.6
2017-Mar-20 19:34N 39°43' W 075°31'0 0.0
2017-Mar-20 18:33N 39°43' W 075°31'0 0.0
2017-Mar-20 17:33N 39°43' W 075°31'0 0.0
2017-Mar-20 16:33N 39°43' W 075°31'0 0.0
2017-Mar-20 15:33N 39°43' W 075°31'0 0.1
2017-Mar-20 12:33N 39°43' W 075°31'1 1.1
2017-Mar-20 11:27N 39°42' W 075°31'1 1.4
2017-Mar-20 10:33N 39°43' W 075°31'0 0.0
2017-Mar-20 09:32N 39°43' W 075°31'0 0.3
2017-Mar-20 08:32N 39°43' W 075°31'0 0.3
2017-Mar-20 07:33N 39°43' W 075°31'0 0.0
2017-Mar-20 06:33N 39°43' W 075°31'0 0.0
2017-Mar-20 05:33N 39°43' W 075°31'0 0.0
2017-Mar-20 04:34N 39°43' W 075°31'0 0.0
2017-Mar-20 03:33N 39°43' W 075°31'0 0.0
2017-Mar-20 02:33N 39°43' W 075°31'5 4.9
2017-Mar-20 01:33N 39°39' W 075°34'  
Track history (hours):
 
Tides and Currents Weather Stations Pressure Air Temp Water Temp Dewpoint Dewpoint Depression Visibility Wind Speed Wind Dir Waves Ship Positions

Capt. Harry

Owner: Wilmington Tug, Inc., New Castle, DE. More information available from US FCC via Universal Licensing System and Coast Guard Vessel Documentation Center.

Last reported at 2017-Mar-30 01:32 UTC. Time now 2017-Mar-30 05:00 UTC.
Position N 39°14' W 075°19'.

Type: Tug. MMSI: 367012530.

Date/timePositionNaut miles runAvg speedWind from/ knotsBaromVisibWave heightAir tempDewpointWater temp
2017-Mar-30 01:32N 39°14' W 075°19'1212.2
2017-Mar-30 00:33N 39°23' W 075°29'1212.5
2017-Mar-29 23:33N 39°35' W 075°34'1413.6
2017-Mar-29 22:33N 39°48' W 075°26'1212.1
2017-Mar-29 21:33N 39°53' W 075°12'1 0.7
2017-Mar-29 20:34N 39°53' W 075°11'0 0.0
2017-Mar-29 19:33N 39°53' W 075°11'0 0.0
2017-Mar-29 18:33N 39°53' W 075°11'0 0.0
2017-Mar-29 17:34N 39°53' W 075°11'0 0.0
2017-Mar-29 16:33N 39°53' W 075°11'0 0.0
2017-Mar-29 15:34N 39°53' W 075°11'0 0.0
2017-Mar-29 14:34N 39°53' W 075°11'0 0.0
2017-Mar-29 13:33N 39°53' W 075°11'0 0.0
2017-Mar-29 12:34N 39°53' W 075°11'0 0.0
2017-Mar-29 11:33N 39°53' W 075°11'0 0.0
2017-Mar-29 10:34N 39°53' W 075°11'0 0.0
2017-Mar-29 09:33N 39°53' W 075°11'0 0.0
2017-Mar-29 08:33N 39°53' W 075°11'0 0.0
2017-Mar-29 07:34N 39°53' W 075°11'2 2.3
2017-Mar-29 06:34N 39°52' W 075°14'9 8.9
2017-Mar-29 05:33N 39°49' W 075°24'0 0.0
2017-Mar-29 04:33N 39°49' W 075°24'1 1.2
2017-Mar-29 03:33N 39°48' W 075°26'0 0.0
2017-Mar-29 02:33N 39°48' W 075°26'1 1.3
2017-Mar-29 01:33N 39°49' W 075°24'1 1.3
2017-Mar-29 00:33N 39°48' W 075°26'0 0.0
2017-Mar-28 23:33N 39°48' W 075°26'0 0.0
2017-Mar-28 22:33N 39°48' W 075°26'0 0.0
2017-Mar-28 21:33N 39°48' W 075°26'0 0.0
2017-Mar-28 20:33N 39°48' W 075°26'0 0.0
2017-Mar-28 19:33N 39°48' W 075°26'0 0.0
2017-Mar-28 18:33N 39°48' W 075°26'0 0.0
2017-Mar-28 17:33N 39°48' W 075°26'0 0.0
2017-Mar-28 16:33N 39°48' W 075°26'0 0.1
2017-Mar-28 15:33N 39°48' W 075°26'1 1.4
2017-Mar-28 14:33N 39°49' W 075°24'0 0.0
2017-Mar-28 13:33N 39°49' W 075°24'1 1.2
2017-Mar-28 12:33N 39°48' W 075°26'0 0.2
2017-Mar-28 11:22N 39°48' W 075°26'0 0.0
2017-Mar-28 10:33N 39°48' W 075°26'7 6.9
2017-Mar-28 09:33N 39°51' W 075°18'1 1.2
2017-Mar-28 08:33N 39°51' W 075°16'2 1.8
2017-Mar-28 07:33N 39°51' W 075°19'2 2.1
2017-Mar-28 06:33N 39°51' W 075°16'0 0.0
2017-Mar-28 05:33N 39°51' W 075°16'0 0.0
2017-Mar-28 04:33N 39°51' W 075°16'0 0.0
2017-Mar-28 03:33N 39°51' W 075°16'0 0.0
2017-Mar-28 02:33N 39°51' W 075°16'0 0.3
2017-Mar-28 01:33N 39°51' W 075°16'1010.2
2017-Mar-28 00:33N 39°46' W 075°28'4 4.0
2017-Mar-27 23:33N 39°43' W 075°31'0 0.1
2017-Mar-27 22:33N 39°43' W 075°31'0 0.0
2017-Mar-27 21:33N 39°43' W 075°31'0 0.0
2017-Mar-27 20:33N 39°43' W 075°31'0 0.0
2017-Mar-27 19:33N 39°43' W 075°31'0 0.0
2017-Mar-27 18:33N 39°43' W 075°31'0 0.0
2017-Mar-27 17:33N 39°43' W 075°31'0 0.0
2017-Mar-27 16:33N 39°43' W 075°31'0 0.5
2017-Mar-27 15:33N 39°43' W 075°31'0 0.1
2017-Mar-27 14:34N 39°43' W 075°31'0 0.3
2017-Mar-27 13:34N 39°43' W 075°31'0 0.3
2017-Mar-27 12:33N 39°43' W 075°31'0 0.0
2017-Mar-27 11:34N 39°43' W 075°31'3 3.0
2017-Mar-27 10:34N 39°46' W 075°29'4 3.5
2017-Mar-27 09:34N 39°48' W 075°26'0 0.0
2017-Mar-27 08:33N 39°48' W 075°26'0 0.0
2017-Mar-27 07:34N 39°48' W 075°26'0 0.0
2017-Mar-27 06:33N 39°48' W 075°26'1 1.4
2017-Mar-27 05:33N 39°49' W 075°24'1 1.4
2017-Mar-27 04:33N 39°48' W 075°26'0 0.0
2017-Mar-27 03:33N 39°48' W 075°26'0 0.0
2017-Mar-27 02:33N 39°48' W 075°26'0 0.0
2017-Mar-27 01:34N 39°48' W 075°26'5 5.4
2017-Mar-27 00:33N 39°51' W 075°20'7 7.1
2017-Mar-26 23:34N 39°53' W 075°11'0 0.0
2017-Mar-26 22:34N 39°53' W 075°11'0 0.0
2017-Mar-26 21:34N 39°53' W 075°11'0 0.0
2017-Mar-26 20:33N 39°53' W 075°11'0 0.0
2017-Mar-26 19:34N 39°53' W 075°11'0 0.0
2017-Mar-26 18:34N 39°53' W 075°11'0 0.0
2017-Mar-26 17:33N 39°53' W 075°11'0 0.0
2017-Mar-26 16:34N 39°53' W 075°11'2 1.8
2017-Mar-26 15:34N 39°52' W 075°13'0 0.2
2017-Mar-26 14:34N 39°52' W 075°13'2 1.8
2017-Mar-26 13:34N 39°53' W 075°11'0 0.0
2017-Mar-26 12:34N 39°53' W 075°11'3 3.0
2017-Mar-26 11:33N 39°54' W 075°08'0 0.3
2017-Mar-26 10:33N 39°54' W 075°08'2 2.4
2017-Mar-26 09:33N 39°53' W 075°10'1 0.5
2017-Mar-26 08:33N 39°53' W 075°11'0 0.0
2017-Mar-26 07:33N 39°53' W 075°11'0 0.0
2017-Mar-26 06:33N 39°53' W 075°11'0 0.0
2017-Mar-26 05:33N 39°53' W 075°11'0 0.0
2017-Mar-26 04:33N 39°53' W 075°11'0 0.0
2017-Mar-26 03:33N 39°53' W 075°11'0 0.0
2017-Mar-26 02:33N 39°53' W 075°11'0 0.0
2017-Mar-26 01:33N 39°53' W 075°11'0 0.0
2017-Mar-26 00:33N 39°53' W 075°11'0 0.0
2017-Mar-25 23:33N 39°53' W 075°11'0 0.0
2017-Mar-25 22:33N 39°53' W 075°11'0 0.0
2017-Mar-25 21:33N 39°53' W 075°11'0 0.0
2017-Mar-25 20:33N 39°53' W 075°11'0 0.0
2017-Mar-25 19:33N 39°53' W 075°11'0 0.0
2017-Mar-25 18:33N 39°53' W 075°11'0 0.0
2017-Mar-25 17:33N 39°53' W 075°11'0 0.0
2017-Mar-25 16:33N 39°53' W 075°11'0 0.0
2017-Mar-25 15:33N 39°53' W 075°11'0 0.0
2017-Mar-25 14:33N 39°53' W 075°11'0 0.0
2017-Mar-25 13:33N 39°53' W 075°11'0 0.0
2017-Mar-25 12:33N 39°53' W 075°11'0 0.0
2017-Mar-25 11:33N 39°53' W 075°11'0 0.0
2017-Mar-25 10:33N 39°53' W 075°11'0 0.0
2017-Mar-25 09:33N 39°53' W 075°11'0 0.0
2017-Mar-25 08:33N 39°53' W 075°11'0 0.0
2017-Mar-25 07:33N 39°53' W 075°11'0 0.0
2017-Mar-25 06:33N 39°53' W 075°11'0 0.0
2017-Mar-25 05:33N 39°53' W 075°11'0 0.0
2017-Mar-25 04:33N 39°53' W 075°11'0 0.0
2017-Mar-25 03:33N 39°53' W 075°11'0 0.0
2017-Mar-25 02:33N 39°53' W 075°11'0 0.0
2017-Mar-25 01:33N 39°53' W 075°11'4 4.1
2017-Mar-25 00:33N 39°57' W 075°08'3 2.9
2017-Mar-24 23:33N 39°59' W 075°05'0 0.0
2017-Mar-24 22:33N 39°59' W 075°05'0 0.0
2017-Mar-24 21:33N 39°59' W 075°05'0 0.0
2017-Mar-24 20:27N 39°59' W 075°05'4 4.4
2017-Mar-24 19:34N 39°55' W 075°08'6 5.9
2017-Mar-24 18:33N 39°51' W 075°14'0 0.3
2017-Mar-24 17:34N 39°51' W 075°14'3 3.0
2017-Mar-24 16:33N 39°53' W 075°11'0 0.0
2017-Mar-24 15:34N 39°53' W 075°11'0 0.0
2017-Mar-24 14:34N 39°53' W 075°11'0 0.0
2017-Mar-24 13:34N 39°53' W 075°11'0 0.0
2017-Mar-24 12:33N 39°53' W 075°11'0 0.0
2017-Mar-24 11:33N 39°53' W 075°11'0 0.0
2017-Mar-24 10:33N 39°53' W 075°11'0 0.0
2017-Mar-24 09:34N 39°53' W 075°11'0 0.0
2017-Mar-24 08:33N 39°53' W 075°11'0 0.0
2017-Mar-24 07:34N 39°53' W 075°11'4 3.5
2017-Mar-24 06:33N 39°51' W 075°15'1 1.1
2017-Mar-24 05:33N 39°51' W 075°16'1 1.5
2017-Mar-24 04:33N 39°51' W 075°18'4 4.4
2017-Mar-24 03:34N 39°52' W 075°13'2 1.5
2017-Mar-24 02:33N 39°53' W 075°11'0 0.0
2017-Mar-24 01:33N 39°53' W 075°11'0 0.0
2017-Mar-24 00:33N 39°53' W 075°11'0 0.0
2017-Mar-23 23:34N 39°53' W 075°11'0 0.0
2017-Mar-23 22:34N 39°53' W 075°11'0 0.0
2017-Mar-23 21:33N 39°53' W 075°11'0 0.0
2017-Mar-23 20:34N 39°53' W 075°11'0 0.0
2017-Mar-23 19:34N 39°53' W 075°11'0 0.0
2017-Mar-23 18:34N 39°53' W 075°11'0 0.0
2017-Mar-23 17:33N 39°53' W 075°11'0 0.0
2017-Mar-23 16:33N 39°53' W 075°11'0 0.0
2017-Mar-23 15:33N 39°53' W 075°11'0 0.0
2017-Mar-23 14:33N 39°53' W 075°11'0 0.0
2017-Mar-23 13:33N 39°53' W 075°11'0 0.0
2017-Mar-23 12:34N 39°53' W 075°11'0 0.0
2017-Mar-23 11:33N 39°53' W 075°11'0 0.0
2017-Mar-23 10:34N 39°53' W 075°11'0 0.0
2017-Mar-23 09:34N 39°53' W 075°11'0 0.0
2017-Mar-23 08:34N 39°53' W 075°11'2 2.5
2017-Mar-23 07:33N 39°54' W 075°08'0 0.2
2017-Mar-23 06:34N 39°54' W 075°08'0 0.0
2017-Mar-23 05:33N 39°54' W 075°08'0 0.0
2017-Mar-23 04:33N 39°54' W 075°08'5 4.9
2017-Mar-23 03:33N 39°58' W 075°06'0 0.2
2017-Mar-23 02:33N 39°58' W 075°06'5 5.3
2017-Mar-23 01:33N 39°53' W 075°08'2 2.1
2017-Mar-23 00:34N 39°53' W 075°11'0 0.0
2017-Mar-22 23:34N 39°53' W 075°11'0 0.0
2017-Mar-22 22:33N 39°53' W 075°11'0 0.0
2017-Mar-22 21:33N 39°53' W 075°11'0 0.0
2017-Mar-22 20:34N 39°53' W 075°11'0 0.0
2017-Mar-22 19:33N 39°53' W 075°11'0 0.0
2017-Mar-22 18:34N 39°53' W 075°11'3 2.5
2017-Mar-22 17:33N 39°54' W 075°08'2 2.4
2017-Mar-22 16:33N 39°53' W 075°11'0 0.4
2017-Mar-22 15:33N 39°53' W 075°11'0 0.0
2017-Mar-22 14:34N 39°53' W 075°11'5 4.5
2017-Mar-22 13:33N 39°51' W 075°16'0 0.1
2017-Mar-22 12:33N 39°51' W 075°16'0 0.3
2017-Mar-22 11:33N 39°51' W 075°16'6 6.1
2017-Mar-22 10:33N 39°53' W 075°08'1 0.9
2017-Mar-22 09:33N 39°53' W 075°09'1 1.4
2017-Mar-22 08:33N 39°54' W 075°08'2 2.3
2017-Mar-22 07:33N 39°53' W 075°11'0 0.0
2017-Mar-22 06:33N 39°53' W 075°11'0 0.0
2017-Mar-22 05:33N 39°53' W 075°11'0 0.0
2017-Mar-22 04:33N 39°53' W 075°11'0 0.0
2017-Mar-22 03:33N 39°53' W 075°11'0 0.0
2017-Mar-22 02:33N 39°53' W 075°11'0 0.0
2017-Mar-22 01:33N 39°53' W 075°11'0 0.0
2017-Mar-22 00:33N 39°53' W 075°11'0 0.0
2017-Mar-21 23:33N 39°53' W 075°11'0 0.0
2017-Mar-21 22:33N 39°53' W 075°11'0 0.0
2017-Mar-21 21:33N 39°53' W 075°11'0 0.0
2017-Mar-21 20:33N 39°53' W 075°11'0 0.0
2017-Mar-21 19:33N 39°53' W 075°11'11 0.5
2017-Mar-20 23:13N 39°49' W 075°24'0 0.0
2017-Mar-20 22:33N 39°49' W 075°24'7 3.1
2017-Mar-20 20:09N 39°43' W 075°31'0 0.6
2017-Mar-20 19:34N 39°43' W 075°31'0 0.0
2017-Mar-20 18:33N 39°43' W 075°31'0 0.0
2017-Mar-20 17:33N 39°43' W 075°31'0 0.0
2017-Mar-20 16:33N 39°43' W 075°31'0 0.0
2017-Mar-20 15:33N 39°43' W 075°31'0 0.1
2017-Mar-20 12:33N 39°43' W 075°31'1 1.1
2017-Mar-20 11:27N 39°42' W 075°31'1 1.4
2017-Mar-20 10:33N 39°43' W 075°31'0 0.0
2017-Mar-20 09:32N 39°43' W 075°31'0 0.3
2017-Mar-20 08:32N 39°43' W 075°31'0 0.3
2017-Mar-20 07:33N 39°43' W 075°31'0 0.0
2017-Mar-20 06:33N 39°43' W 075°31'0 0.0
2017-Mar-20 05:33N 39°43' W 075°31'0 0.0
2017-Mar-20 04:34N 39°43' W 075°31'0 0.0
2017-Mar-20 03:33N 39°43' W 075°31'0 0.0
2017-Mar-20 02:33N 39°43' W 075°31'5 4.9
2017-Mar-20 01:33N 39°39' W 075°34'  

Dump ship's entire track history